South Orleans, Massachusetts
Current Conditions -  °F | °C
As of 5:52 AM on Friday 28 Nov 2014 (Local Time) from KCQX Reporting Station
Light Rain Light Rain  
Wind Chill: 36°   Ceiling: 1400
Heat Index: 36°   Visibility: 8mi
Dew Point: 35°   Wind: 3mph
Humidity: 97%   Direction: 350°N
Pressure: 29.93"   Gusts: NA
Location:  41.75°N, 69.99°W
Report Text: KCQX 281052Z AUTO 35003KT 8SM -RA BKN014 OVC019 02/02 A2993 RMK AO2 SLP137 P0002 T00220017 $
Loading
Personal Weather Stations






























Interactive Weather Map New forecast layout! Learn more

10-Day Weather Forecast

Advertisements
Track Severe Weather on mobile